sensor_id;sensor_type;location;lat;lon;timestamp;P1;durP1;ratioP1;P2;durP2;ratioP2
52708;SDS011;38606;52.986;6.980;2023-08-24T00:01:09;5.97;;;3.53;;
52708;SDS011;38606;52.986;6.980;2023-08-24T00:03:38;6.30;;;3.58;;
52708;SDS011;38606;52.986;6.980;2023-08-24T00:06:05;6.07;;;3.83;;
52708;SDS011;38606;52.986;6.980;2023-08-24T00:08:31;6.13;;;4.05;;
52708;SDS011;38606;52.986;6.980;2023-08-24T00:10:57;6.35;;;4.20;;
52708;SDS011;38606;52.986;6.980;2023-08-24T00:13:23;6.57;;;3.83;;
52708;SDS011;38606;52.986;6.980;2023-08-24T00:15:49;6.13;;;4.72;;
52708;SDS011;38606;52.986;6.980;2023-08-24T00:18:15;5.47;;;4.18;;
52708;SDS011;38606;52.986;6.980;2023-08-24T00:20:43;7.20;;;4.13;;
52708;SDS011;38606;52.986;6.980;2023-08-24T00:23:09;6.38;;;4.00;;
52708;SDS011;38606;52.986;6.980;2023-08-24T00:25:34;4.22;;;3.65;;
52708;SDS011;38606;52.986;6.980;2023-08-24T00:28:00;4.90;;;3.70;;
52708;SDS011;38606;52.986;6.980;2023-08-24T00:30:26;8.27;;;4.72;;
52708;SDS011;38606;52.986;6.980;2023-08-24T00:32:51;6.22;;;4.15;;
52708;SDS011;38606;52.986;6.980;2023-08-24T00:35:17;5.78;;;4.47;;
52708;SDS011;38606;52.986;6.980;2023-08-24T00:37:43;5.20;;;3.67;;
52708;SDS011;38606;52.986;6.980;2023-08-24T00:40:09;5.85;;;4.25;;
52708;SDS011;38606;52.986;6.980;2023-08-24T00:42:41;8.27;;;3.83;;
52708;SDS011;38606;52.986;6.980;2023-08-24T00:45:09;6.15;;;3.92;;
52708;SDS011;38606;52.986;6.980;2023-08-24T00:47:36;4.45;;;4.05;;
52708;SDS011;38606;52.986;6.980;2023-08-24T00:50:06;7.38;;;4.30;;
52708;SDS011;38606;52.986;6.980;2023-08-24T00:52:33;4.85;;;3.85;;
52708;SDS011;38606;52.986;6.980;2023-08-24T00:54:59;5.85;;;3.85;;
52708;SDS011;38606;52.986;6.980;2023-08-24T00:57:26;8.43;;;4.45;;
52708;SDS011;38606;52.986;6.980;2023-08-24T00:59:57;8.88;;;4.57;;
52708;SDS011;38606;52.986;6.980;2023-08-24T01:02:27;7.10;;;4.47;;
52708;SDS011;38606;52.986;6.980;2023-08-24T01:04:53;5.97;;;4.10;;
52708;SDS011;38606;52.986;6.980;2023-08-24T01:07:19;7.18;;;4.47;;
52708;SDS011;38606;52.986;6.980;2023-08-24T01:09:46;6.97;;;4.72;;
52708;SDS011;38606;52.986;6.980;2023-08-24T01:17:22;8.23;;;4.63;;
52708;SDS011;38606;52.986;6.980;2023-08-24T01:19:52;6.03;;;4.63;;
52708;SDS011;38606;52.986;6.980;2023-08-24T01:22:31;5.88;;;4.82;;
52708;SDS011;38606;52.986;6.980;2023-08-24T01:25:38;9.30;;;5.25;;
52708;SDS011;38606;52.986;6.980;2023-08-24T01:28:04;7.38;;;5.50;;
52708;SDS011;38606;52.986;6.980;2023-08-24T01:30:31;9.35;;;5.60;;
52708;SDS011;38606;52.986;6.980;2023-08-24T01:32:57;10.38;;;5.43;;
52708;SDS011;38606;52.986;6.980;2023-08-24T01:35:22;9.88;;;5.50;;
52708;SDS011;38606;52.986;6.980;2023-08-24T01:37:48;7.97;;;5.07;;
52708;SDS011;38606;52.986;6.980;2023-08-24T01:45:29;9.57;;;5.78;;
52708;SDS011;38606;52.986;6.980;2023-08-24T01:47:56;10.52;;;6.47;;
52708;SDS011;38606;52.986;6.980;2023-08-24T01:50:24;8.98;;;6.40;;
52708;SDS011;38606;52.986;6.980;2023-08-24T01:52:50;11.85;;;7.47;;
52708;SDS011;38606;52.986;6.980;2023-08-24T01:55:19;11.23;;;7.13;;
52708;SDS011;38606;52.986;6.980;2023-08-24T01:57:45;11.27;;;7.75;;
52708;SDS011;38606;52.986;6.980;2023-08-24T02:00:11;11.85;;;7.85;;
52708;SDS011;38606;52.986;6.980;2023-08-24T02:02:37;11.98;;;7.68;;
52708;SDS011;38606;52.986;6.980;2023-08-24T02:05:03;10.73;;;8.05;;
52708;SDS011;38606;52.986;6.980;2023-08-24T02:07:29;11.80;;;7.03;;
52708;SDS011;38606;52.986;6.980;2023-08-24T02:09:55;13.60;;;7.15;;
52708;SDS011;38606;52.986;6.980;2023-08-24T02:12:21;11.77;;;8.05;;
52708;SDS011;38606;52.986;6.980;2023-08-24T02:14:47;8.85;;;6.60;;
52708;SDS011;38606;52.986;6.980;2023-08-24T02:17:13;11.88;;;6.32;;
52708;SDS011;38606;52.986;6.980;2023-08-24T02:19:39;13.02;;;7.25;;
52708;SDS011;38606;52.986;6.980;2023-08-24T02:22:06;11.73;;;7.22;;
52708;SDS011;38606;52.986;6.980;2023-08-24T02:24:32;13.50;;;8.30;;
52708;SDS011;38606;52.986;6.980;2023-08-24T02:26:58;17.33;;;9.40;;
52708;SDS011;38606;52.986;6.980;2023-08-24T02:29:24;14.75;;;8.68;;
52708;SDS011;38606;52.986;6.980;2023-08-24T02:31:50;12.20;;;8.55;;
52708;SDS011;38606;52.986;6.980;2023-08-24T02:34:16;15.88;;;8.77;;
52708;SDS011;38606;52.986;6.980;2023-08-24T02:36:43;18.08;;;8.98;;
52708;SDS011;38606;52.986;6.980;2023-08-24T02:39:08;11.40;;;8.13;;
52708;SDS011;38606;52.986;6.980;2023-08-24T02:41:34;11.85;;;8.50;;
52708;SDS011;38606;52.986;6.980;2023-08-24T02:44:00;12.27;;;7.93;;
52708;SDS011;38606;52.986;6.980;2023-08-24T02:46:26;16.42;;;7.68;;
52708;SDS011;38606;52.986;6.980;2023-08-24T02:48:52;11.30;;;7.50;;
52708;SDS011;38606;52.986;6.980;2023-08-24T02:51:20;9.75;;;8.05;;
52708;SDS011;38606;52.986;6.980;2023-08-24T02:53:47;9.95;;;7.80;;
52708;SDS011;38606;52.986;6.980;2023-08-24T02:56:14;13.25;;;7.35;;
52708;SDS011;38606;52.986;6.980;2023-08-24T02:58:39;14.65;;;7.82;;
52708;SDS011;38606;52.986;6.980;2023-08-24T03:01:05;11.43;;;7.78;;
52708;SDS011;38606;52.986;6.980;2023-08-24T03:03:32;10.77;;;7.45;;
52708;SDS011;38606;52.986;6.980;2023-08-24T03:06:00;14.30;;;8.32;;
52708;SDS011;38606;52.986;6.980;2023-08-24T03:08:29;14.07;;;8.98;;
52708;SDS011;38606;52.986;6.980;2023-08-24T03:10:56;13.90;;;8.55;;
52708;SDS011;38606;52.986;6.980;2023-08-24T03:13:22;14.52;;;9.25;;
52708;SDS011;38606;52.986;6.980;2023-08-24T03:15:48;12.23;;;8.75;;
52708;SDS011;38606;52.986;6.980;2023-08-24T03:18:14;16.25;;;8.02;;
52708;SDS011;38606;52.986;6.980;2023-08-24T03:20:41;13.20;;;8.50;;
52708;SDS011;38606;52.986;6.980;2023-08-24T03:23:08;13.10;;;8.68;;
52708;SDS011;38606;52.986;6.980;2023-08-24T03:25:38;12.68;;;8.57;;
52708;SDS011;38606;52.986;6.980;2023-08-24T03:28:05;13.48;;;9.18;;
52708;SDS011;38606;52.986;6.980;2023-08-24T03:30:35;12.27;;;9.48;;
52708;SDS011;38606;52.986;6.980;2023-08-24T03:33:03;10.93;;;9.35;;
52708;SDS011;38606;52.986;6.980;2023-08-24T03:35:30;12.05;;;8.48;;
52708;SDS011;38606;52.986;6.980;2023-08-24T03:37:56;11.23;;;8.63;;
52708;SDS011;38606;52.986;6.980;2023-08-24T03:40:22;13.27;;;7.95;;
52708;SDS011;38606;52.986;6.980;2023-08-24T03:42:48;11.88;;;8.63;;
52708;SDS011;38606;52.986;6.980;2023-08-24T03:45:13;14.00;;;8.82;;
52708;SDS011;38606;52.986;6.980;2023-08-24T03:47:39;12.50;;;8.38;;
52708;SDS011;38606;52.986;6.980;2023-08-24T03:50:05;13.48;;;8.48;;
52708;SDS011;38606;52.986;6.980;2023-08-24T03:52:31;12.35;;;9.20;;
52708;SDS011;38606;52.986;6.980;2023-08-24T03:54:57;14.27;;;7.80;;
52708;SDS011;38606;52.986;6.980;2023-08-24T03:57:23;12.23;;;8.70;;
52708;SDS011;38606;52.986;6.980;2023-08-24T03:59:48;11.52;;;9.07;;
52708;SDS011;38606;52.986;6.980;2023-08-24T04:02:14;17.48;;;9.57;;
52708;SDS011;38606;52.986;6.980;2023-08-24T04:04:40;13.38;;;8.57;;
52708;SDS011;38606;52.986;6.980;2023-08-24T04:07:06;12.65;;;9.13;;
52708;SDS011;38606;52.986;6.980;2023-08-24T04:09:31;17.60;;;8.75;;
52708;SDS011;38606;52.986;6.980;2023-08-24T04:11:57;12.35;;;8.55;;
52708;SDS011;38606;52.986;6.980;2023-08-24T04:14:23;11.52;;;8.80;;
52708;SDS011;38606;52.986;6.980;2023-08-24T04:16:48;13.98;;;9.02;;
52708;SDS011;38606;52.986;6.980;2023-08-24T04:19:14;12.60;;;8.85;;
52708;SDS011;38606;52.986;6.980;2023-08-24T04:21:40;13.15;;;9.00;;
52708;SDS011;38606;52.986;6.980;2023-08-24T04:24:06;11.02;;;8.07;;
52708;SDS011;38606;52.986;6.980;2023-08-24T04:26:32;12.27;;;8.35;;
52708;SDS011;38606;52.986;6.980;2023-08-24T04:28:58;12.32;;;8.50;;
52708;SDS011;38606;52.986;6.980;2023-08-24T04:31:23;12.73;;;9.00;;
52708;SDS011;38606;52.986;6.980;2023-08-24T04:33:49;12.57;;;8.95;;
52708;SDS011;38606;52.986;6.980;2023-08-24T04:36:15;13.20;;;9.40;;
52708;SDS011;38606;52.986;6.980;2023-08-24T04:38:40;9.95;;;8.55;;
52708;SDS011;38606;52.986;6.980;2023-08-24T04:41:07;14.27;;;8.50;;
52708;SDS011;38606;52.986;6.980;2023-08-24T04:43:34;15.23;;;8.55;;
52708;SDS011;38606;52.986;6.980;2023-08-24T04:46:01;13.73;;;9.18;;
52708;SDS011;38606;52.986;6.980;2023-08-24T04:48:27;13.18;;;8.85;;
52708;SDS011;38606;52.986;6.980;2023-08-24T04:50:57;17.58;;;9.40;;
52708;SDS011;38606;52.986;6.980;2023-08-24T04:53:24;14.48;;;9.43;;
52708;SDS011;38606;52.986;6.980;2023-08-24T04:55:51;12.73;;;8.70;;
52708;SDS011;38606;52.986;6.980;2023-08-24T04:58:16;11.77;;;8.98;;
52708;SDS011;38606;52.986;6.980;2023-08-24T05:00:42;13.40;;;9.82;;
52708;SDS011;38606;52.986;6.980;2023-08-24T05:03:08;10.75;;;7.75;;
52708;SDS011;38606;52.986;6.980;2023-08-24T05:05:34;14.98;;;9.15;;
52708;SDS011;38606;52.986;6.980;2023-08-24T05:08:01;13.40;;;9.00;;
52708;SDS011;38606;52.986;6.980;2023-08-24T05:10:31;10.98;;;8.50;;
52708;SDS011;38606;52.986;6.980;2023-08-24T05:12:58;10.98;;;8.32;;
52708;SDS011;38606;52.986;6.980;2023-08-24T05:15:24;11.65;;;8.82;;
52708;SDS011;38606;52.986;6.980;2023-08-24T05:17:50;14.55;;;8.63;;
52708;SDS011;38606;52.986;6.980;2023-08-24T05:20:21;12.05;;;8.15;;
52708;SDS011;38606;52.986;6.980;2023-08-24T05:22:47;12.75;;;8.90;;
52708;SDS011;38606;52.986;6.980;2023-08-24T05:25:13;14.95;;;8.95;;
52708;SDS011;38606;52.986;6.980;2023-08-24T05:27:41;12.27;;;8.57;;
52708;SDS011;38606;52.986;6.980;2023-08-24T05:30:07;13.15;;;8.65;;
52708;SDS011;38606;52.986;6.980;2023-08-24T05:32:34;13.57;;;8.85;;
52708;SDS011;38606;52.986;6.980;2023-08-24T05:35:04;14.13;;;8.90;;
52708;SDS011;38606;52.986;6.980;2023-08-24T05:37:30;13.32;;;8.60;;
52708;SDS011;38606;52.986;6.980;2023-08-24T05:39:56;11.82;;;8.18;;
52708;SDS011;38606;52.986;6.980;2023-08-24T05:42:22;13.93;;;8.70;;
52708;SDS011;38606;52.986;6.980;2023-08-24T05:44:47;12.70;;;8.45;;
52708;SDS011;38606;52.986;6.980;2023-08-24T05:47:13;13.35;;;8.23;;
52708;SDS011;38606;52.986;6.980;2023-08-24T05:49:39;14.85;;;8.13;;
52708;SDS011;38606;52.986;6.980;2023-08-24T05:52:04;10.68;;;8.43;;
52708;SDS011;38606;52.986;6.980;2023-08-24T05:54:30;16.13;;;8.35;;
52708;SDS011;38606;52.986;6.980;2023-08-24T05:56:57;14.80;;;8.73;;
52708;SDS011;38606;52.986;6.980;2023-08-24T05:59:25;13.30;;;8.27;;
52708;SDS011;38606;52.986;6.980;2023-08-24T06:01:52;12.85;;;8.13;;
52708;SDS011;38606;52.986;6.980;2023-08-24T06:04:17;11.95;;;7.45;;
52708;SDS011;38606;52.986;6.980;2023-08-24T06:06:43;11.65;;;7.55;;
52708;SDS011;38606;52.986;6.980;2023-08-24T06:09:10;12.50;;;7.45;;
52708;SDS011;38606;52.986;6.980;2023-08-24T06:11:35;12.90;;;8.27;;
52708;SDS011;38606;52.986;6.980;2023-08-24T06:14:01;10.75;;;7.32;;
52708;SDS011;38606;52.986;6.980;2023-08-24T06:16:30;12.50;;;7.10;;
52708;SDS011;38606;52.986;6.980;2023-08-24T06:18:56;12.32;;;7.53;;
52708;SDS011;38606;52.986;6.980;2023-08-24T06:21:21;13.45;;;7.30;;
52708;SDS011;38606;52.986;6.980;2023-08-24T06:23:47;9.15;;;6.43;;
52708;SDS011;38606;52.986;6.980;2023-08-24T06:26:13;10.68;;;6.32;;
52708;SDS011;38606;52.986;6.980;2023-08-24T06:28:39;13.15;;;6.53;;
52708;SDS011;38606;52.986;6.980;2023-08-24T06:31:05;11.40;;;6.85;;
52708;SDS011;38606;52.986;6.980;2023-08-24T06:33:36;9.43;;;6.78;;
52708;SDS011;38606;52.986;6.980;2023-08-24T06:36:03;10.70;;;6.45;;
52708;SDS011;38606;52.986;6.980;2023-08-24T06:38:33;10.40;;;6.60;;
52708;SDS011;38606;52.986;6.980;2023-08-24T06:40:58;12.80;;;6.50;;
52708;SDS011;38606;52.986;6.980;2023-08-24T06:43:27;11.23;;;6.82;;
52708;SDS011;38606;52.986;6.980;2023-08-24T06:45:56;8.88;;;6.22;;
52708;SDS011;38606;52.986;6.980;2023-08-24T06:48:22;13.07;;;6.95;;
52708;SDS011;38606;52.986;6.980;2023-08-24T06:50:48;10.45;;;6.60;;
52708;SDS011;38606;52.986;6.980;2023-08-24T06:53:14;13.18;;;6.43;;
52708;SDS011;38606;52.986;6.980;2023-08-24T06:55:40;9.95;;;6.30;;
52708;SDS011;38606;52.986;6.980;2023-08-24T06:58:05;10.45;;;6.68;;
52708;SDS011;38606;52.986;6.980;2023-08-24T07:00:31;11.13;;;6.35;;
52708;SDS011;38606;52.986;6.980;2023-08-24T07:02:58;10.88;;;6.32;;
52708;SDS011;38606;52.986;6.980;2023-08-24T07:05:24;9.85;;;6.72;;
52708;SDS011;38606;52.986;6.980;2023-08-24T07:07:50;11.02;;;6.25;;
52708;SDS011;38606;52.986;6.980;2023-08-24T07:10:16;12.50;;;6.72;;
52708;SDS011;38606;52.986;6.980;2023-08-24T07:12:42;12.50;;;6.78;;
52708;SDS011;38606;52.986;6.980;2023-08-24T07:15:10;9.45;;;6.45;;
52708;SDS011;38606;52.986;6.980;2023-08-24T07:17:36;13.00;;;6.22;;
52708;SDS011;38606;52.986;6.980;2023-08-24T07:20:03;12.98;;;6.22;;
52708;SDS011;38606;52.986;6.980;2023-08-24T07:22:33;10.55;;;5.88;;
52708;SDS011;38606;52.986;6.980;2023-08-24T07:25:00;10.20;;;5.95;;
52708;SDS011;38606;52.986;6.980;2023-08-24T07:27:30;10.13;;;5.72;;
52708;SDS011;38606;52.986;6.980;2023-08-24T07:29:56;11.68;;;5.90;;
52708;SDS011;38606;52.986;6.980;2023-08-24T07:32:22;9.05;;;5.43;;
52708;SDS011;38606;52.986;6.980;2023-08-24T07:34:49;6.57;;;5.65;;
52708;SDS011;38606;52.986;6.980;2023-08-24T07:37:14;10.63;;;5.45;;
52708;SDS011;38606;52.986;6.980;2023-08-24T07:39:40;9.93;;;5.32;;
52708;SDS011;38606;52.986;6.980;2023-08-24T07:42:06;9.40;;;5.40;;
52708;SDS011;38606;52.986;6.980;2023-08-24T07:44:31;11.32;;;6.18;;
52708;SDS011;38606;52.986;6.980;2023-08-24T07:46:57;10.35;;;5.30;;
52708;SDS011;38606;52.986;6.980;2023-08-24T07:49:23;9.82;;;5.60;;
52708;SDS011;38606;52.986;6.980;2023-08-24T07:51:48;13.38;;;6.00;;
52708;SDS011;38606;52.986;6.980;2023-08-24T07:54:14;9.15;;;6.00;;
52708;SDS011;38606;52.986;6.980;2023-08-24T07:56:40;15.35;;;5.97;;
52708;SDS011;38606;52.986;6.980;2023-08-24T07:59:06;13.88;;;5.63;;
52708;SDS011;38606;52.986;6.980;2023-08-24T08:01:32;9.90;;;6.50;;
52708;SDS011;38606;52.986;6.980;2023-08-24T08:04:01;15.55;;;6.03;;
52708;SDS011;38606;52.986;6.980;2023-08-24T08:06:26;10.23;;;6.03;;
52708;SDS011;38606;52.986;6.980;2023-08-24T08:08:52;11.07;;;5.65;;
52708;SDS011;38606;52.986;6.980;2023-08-24T08:11:18;7.85;;;4.95;;
52708;SDS011;38606;52.986;6.980;2023-08-24T08:13:44;10.32;;;5.10;;
52708;SDS011;38606;52.986;6.980;2023-08-24T08:16:10;7.55;;;5.30;;
52708;SDS011;38606;52.986;6.980;2023-08-24T08:18:36;8.40;;;4.93;;
52708;SDS011;38606;52.986;6.980;2023-08-24T08:21:15;9.30;;;4.75;;
52708;SDS011;38606;52.986;6.980;2023-08-24T08:23:44;8.00;;;4.78;;
52708;SDS011;38606;52.986;6.980;2023-08-24T08:26:10;9.63;;;5.20;;
52708;SDS011;38606;52.986;6.980;2023-08-24T08:28:38;10.27;;;4.45;;
52708;SDS011;38606;52.986;6.980;2023-08-24T08:31:04;9.48;;;4.70;;
52708;SDS011;38606;52.986;6.980;2023-08-24T08:33:31;7.45;;;4.60;;
52708;SDS011;38606;52.986;6.980;2023-08-24T08:35:56;7.80;;;4.85;;
52708;SDS011;38606;52.986;6.980;2023-08-24T08:38:22;11.02;;;5.20;;
52708;SDS011;38606;52.986;6.980;2023-08-24T08:40:51;9.93;;;5.30;;
52708;SDS011;38606;52.986;6.980;2023-08-24T08:43:21;6.05;;;4.60;;
52708;SDS011;38606;52.986;6.980;2023-08-24T08:45:51;8.82;;;5.15;;
52708;SDS011;38606;52.986;6.980;2023-08-24T08:48:20;8.93;;;4.65;;
52708;SDS011;38606;52.986;6.980;2023-08-24T08:50:49;9.38;;;4.65;;
52708;SDS011;38606;52.986;6.980;2023-08-24T08:53:16;9.13;;;4.65;;
52708;SDS011;38606;52.986;6.980;2023-08-24T08:55:47;8.32;;;4.32;;
52708;SDS011;38606;52.986;6.980;2023-08-24T08:58:18;12.88;;;4.95;;
52708;SDS011;38606;52.986;6.980;2023-08-24T09:00:46;9.05;;;4.50;;
52708;SDS011;38606;52.986;6.980;2023-08-24T09:03:17;10.18;;;4.60;;
52708;SDS011;38606;52.986;6.980;2023-08-24T09:05:44;9.50;;;5.35;;
52708;SDS011;38606;52.986;6.980;2023-08-24T09:08:13;6.90;;;4.45;;
52708;SDS011;38606;52.986;6.980;2023-08-24T09:10:42;7.70;;;5.15;;
52708;SDS011;38606;52.986;6.980;2023-08-24T09:13:09;8.18;;;5.10;;
52708;SDS011;38606;52.986;6.980;2023-08-24T09:15:35;8.68;;;4.65;;
52708;SDS011;38606;52.986;6.980;2023-08-24T09:18:01;7.25;;;4.80;;
52708;SDS011;38606;52.986;6.980;2023-08-24T09:20:28;9.88;;;4.70;;
52708;SDS011;38606;52.986;6.980;2023-08-24T09:22:55;7.82;;;4.13;;
52708;SDS011;38606;52.986;6.980;2023-08-24T09:25:25;8.85;;;4.13;;
52708;SDS011;38606;52.986;6.980;2023-08-24T09:28:01;10.15;;;4.97;;
52708;SDS011;38606;52.986;6.980;2023-08-24T09:30:31;9.05;;;5.32;;
52708;SDS011;38606;52.986;6.980;2023-08-24T09:33:09;8.60;;;4.90;;
52708;SDS011;38606;52.986;6.980;2023-08-24T09:35:36;9.13;;;4.55;;
52708;SDS011;38606;52.986;6.980;2023-08-24T09:40:50;6.82;;;4.70;;
52708;SDS011;38606;52.986;6.980;2023-08-24T09:43:16;6.90;;;4.80;;
52708;SDS011;38606;52.986;6.980;2023-08-24T09:45:49;10.68;;;5.10;;
52708;SDS011;38606;52.986;6.980;2023-08-24T09:48:21;7.03;;;4.65;;
52708;SDS011;38606;52.986;6.980;2023-08-24T09:50:49;9.60;;;4.95;;
52708;SDS011;38606;52.986;6.980;2023-08-24T09:53:24;11.85;;;5.30;;
52708;SDS011;38606;52.986;6.980;2023-08-24T09:55:57;6.40;;;4.90;;
52708;SDS011;38606;52.986;6.980;2023-08-24T09:58:25;12.60;;;6.03;;
52708;SDS011;38606;52.986;6.980;2023-08-24T10:00:52;11.07;;;5.22;;
52708;SDS011;38606;52.986;6.980;2023-08-24T10:03:19;15.30;;;5.88;;
52708;SDS011;38606;52.986;6.980;2023-08-24T10:05:52;13.27;;;5.32;;
52708;SDS011;38606;52.986;6.980;2023-08-24T10:08:20;8.85;;;5.07;;
52708;SDS011;38606;52.986;6.980;2023-08-24T10:10:53;12.88;;;5.35;;
52708;SDS011;38606;52.986;6.980;2023-08-24T10:40:40;8.07;;;4.85;;
52708;SDS011;38606;52.986;6.980;2023-08-24T10:43:09;7.68;;;5.00;;
52708;SDS011;38606;52.986;6.980;2023-08-24T10:48:21;9.07;;;4.80;;
52708;SDS011;38606;52.986;6.980;2023-08-24T10:53:44;6.28;;;4.78;;
52708;SDS011;38606;52.986;6.980;2023-08-24T10:56:12;7.80;;;5.20;;
52708;SDS011;38606;52.986;6.980;2023-08-24T10:58:38;8.00;;;4.70;;
52708;SDS011;38606;52.986;6.980;2023-08-24T11:01:04;10.25;;;5.47;;
52708;SDS011;38606;52.986;6.980;2023-08-24T11:03:30;9.95;;;4.78;;
52708;SDS011;38606;52.986;6.980;2023-08-24T11:05:57;9.75;;;5.25;;
52708;SDS011;38606;52.986;6.980;2023-08-24T11:08:43;9.48;;;5.07;;
52708;SDS011;38606;52.986;6.980;2023-08-24T11:11:22;8.32;;;5.03;;
52708;SDS011;38606;52.986;6.980;2023-08-24T11:14:12;9.30;;;4.75;;
52708;SDS011;38606;52.986;6.980;2023-08-24T11:16:47;9.43;;;5.40;;
52708;SDS011;38606;52.986;6.980;2023-08-24T11:19:14;10.77;;;4.68;;
52708;SDS011;38606;52.986;6.980;2023-08-24T11:21:41;11.45;;;4.55;;
52708;SDS011;38606;52.986;6.980;2023-08-24T11:24:15;8.10;;;4.55;;
52708;SDS011;38606;52.986;6.980;2023-08-24T11:26:42;15.18;;;5.60;;
52708;SDS011;38606;52.986;6.980;2023-08-24T11:29:10;7.88;;;4.45;;
52708;SDS011;38606;52.986;6.980;2023-08-24T11:31:36;5.13;;;4.50;;
52708;SDS011;38606;52.986;6.980;2023-08-24T11:34:03;8.43;;;4.60;;
52708;SDS011;38606;52.986;6.980;2023-08-24T11:36:30;7.38;;;5.35;;
52708;SDS011;38606;52.986;6.980;2023-08-24T11:38:57;7.57;;;4.82;;
52708;SDS011;38606;52.986;6.980;2023-08-24T11:41:24;8.98;;;4.57;;
52708;SDS011;38606;52.986;6.980;2023-08-24T11:43:58;8.15;;;4.50;;
52708;SDS011;38606;52.986;6.980;2023-08-24T11:46:24;10.05;;;5.00;;
52708;SDS011;38606;52.986;6.980;2023-08-24T11:48:52;8.30;;;5.55;;
52708;SDS011;38606;52.986;6.980;2023-08-24T11:51:18;8.95;;;4.80;;
52708;SDS011;38606;52.986;6.980;2023-08-24T11:53:44;9.40;;;4.85;;
52708;SDS011;38606;52.986;6.980;2023-08-24T11:56:12;7.47;;;5.00;;
52708;SDS011;38606;52.986;6.980;2023-08-24T11:58:39;11.15;;;5.60;;
52708;SDS011;38606;52.986;6.980;2023-08-24T12:01:05;7.78;;;5.15;;
52708;SDS011;38606;52.986;6.980;2023-08-24T12:03:32;7.85;;;4.72;;
52708;SDS011;38606;52.986;6.980;2023-08-24T12:06:02;7.25;;;4.68;;
52708;SDS011;38606;52.986;6.980;2023-08-24T12:08:37;12.63;;;5.40;;
52708;SDS011;38606;52.986;6.980;2023-08-24T12:11:13;9.20;;;4.97;;
52708;SDS011;38606;52.986;6.980;2023-08-24T12:13:47;7.13;;;4.72;;
52708;SDS011;38606;52.986;6.980;2023-08-24T12:16:17;9.70;;;4.97;;
52708;SDS011;38606;52.986;6.980;2023-08-24T12:18:54;9.68;;;5.00;;
52708;SDS011;38606;52.986;6.980;2023-08-24T12:21:22;8.75;;;4.55;;
52708;SDS011;38606;52.986;6.980;2023-08-24T12:24:04;12.00;;;4.50;;
52708;SDS011;38606;52.986;6.980;2023-08-24T12:26:31;9.50;;;4.23;;
52708;SDS011;38606;52.986;6.980;2023-08-24T12:29:04;9.70;;;4.90;;
52708;SDS011;38606;52.986;6.980;2023-08-24T12:31:31;7.82;;;4.82;;
52708;SDS011;38606;52.986;6.980;2023-08-24T12:34:01;8.45;;;4.53;;
52708;SDS011;38606;52.986;6.980;2023-08-24T12:36:28;5.63;;;4.50;;
52708;SDS011;38606;52.986;6.980;2023-08-24T12:38:55;8.10;;;4.30;;
52708;SDS011;38606;52.986;6.980;2023-08-24T12:41:21;9.55;;;4.63;;
52708;SDS011;38606;52.986;6.980;2023-08-24T12:43:47;9.05;;;4.60;;
52708;SDS011;38606;52.986;6.980;2023-08-24T12:46:13;10.40;;;4.38;;
52708;SDS011;38606;52.986;6.980;2023-08-24T12:48:38;8.43;;;4.35;;
52708;SDS011;38606;52.986;6.980;2023-08-24T12:51:04;8.68;;;4.78;;
52708;SDS011;38606;52.986;6.980;2023-08-24T12:53:30;8.18;;;4.55;;
52708;SDS011;38606;52.986;6.980;2023-08-24T12:55:56;10.35;;;4.43;;
52708;SDS011;38606;52.986;6.980;2023-08-24T12:58:21;10.85;;;4.80;;
52708;SDS011;38606;52.986;6.980;2023-08-24T13:00:47;6.35;;;4.40;;
52708;SDS011;38606;52.986;6.980;2023-08-24T13:03:14;7.05;;;4.50;;
52708;SDS011;38606;52.986;6.980;2023-08-24T13:05:39;7.68;;;4.90;;
52708;SDS011;38606;52.986;6.980;2023-08-24T13:08:05;12.93;;;4.28;;
52708;SDS011;38606;52.986;6.980;2023-08-24T13:10:31;9.02;;;4.43;;
52708;SDS011;38606;52.986;6.980;2023-08-24T13:12:56;8.65;;;4.47;;
52708;SDS011;38606;52.986;6.980;2023-08-24T13:15:22;11.05;;;4.95;;
52708;SDS011;38606;52.986;6.980;2023-08-24T13:17:48;10.50;;;4.53;;
52708;SDS011;38606;52.986;6.980;2023-08-24T13:20:14;5.78;;;4.43;;
52708;SDS011;38606;52.986;6.980;2023-08-24T13:22:40;7.50;;;4.55;;
52708;SDS011;38606;52.986;6.980;2023-08-24T13:25:06;6.03;;;4.30;;
52708;SDS011;38606;52.986;6.980;2023-08-24T13:27:32;8.13;;;4.60;;
52708;SDS011;38606;52.986;6.980;2023-08-24T13:30:02;7.90;;;4.38;;
52708;SDS011;38606;52.986;6.980;2023-08-24T13:32:29;7.38;;;4.90;;
52708;SDS011;38606;52.986;6.980;2023-08-24T13:34:55;11.20;;;4.55;;
52708;SDS011;38606;52.986;6.980;2023-08-24T13:37:21;9.57;;;4.70;;
52708;SDS011;38606;52.986;6.980;2023-08-24T13:39:48;7.03;;;4.30;;
52708;SDS011;38606;52.986;6.980;2023-08-24T13:42:14;10.48;;;4.60;;
52708;SDS011;38606;52.986;6.980;2023-08-24T13:44:39;5.53;;;4.15;;
52708;SDS011;38606;52.986;6.980;2023-08-24T13:47:05;10.15;;;4.80;;
52708;SDS011;38606;52.986;6.980;2023-08-24T13:49:31;10.23;;;4.78;;
52708;SDS011;38606;52.986;6.980;2023-08-24T13:51:57;6.95;;;4.53;;
52708;SDS011;38606;52.986;6.980;2023-08-24T13:54:22;8.57;;;4.72;;
52708;SDS011;38606;52.986;6.980;2023-08-24T13:56:50;9.73;;;4.95;;
52708;SDS011;38606;52.986;6.980;2023-08-24T13:59:15;8.52;;;4.93;;
52708;SDS011;38606;52.986;6.980;2023-08-24T14:01:41;8.88;;;5.13;;
52708;SDS011;38606;52.986;6.980;2023-08-24T14:04:07;11.68;;;4.60;;
52708;SDS011;38606;52.986;6.980;2023-08-24T14:06:33;9.38;;;4.60;;
52708;SDS011;38606;52.986;6.980;2023-08-24T14:08:59;7.35;;;4.38;;
52708;SDS011;38606;52.986;6.980;2023-08-24T14:11:25;7.88;;;4.93;;
52708;SDS011;38606;52.986;6.980;2023-08-24T14:13:52;7.40;;;4.35;;
52708;SDS011;38606;52.986;6.980;2023-08-24T14:16:18;6.68;;;4.05;;
52708;SDS011;38606;52.986;6.980;2023-08-24T14:18:47;7.80;;;4.13;;
52708;SDS011;38606;52.986;6.980;2023-08-24T14:21:13;10.18;;;4.00;;
52708;SDS011;38606;52.986;6.980;2023-08-24T14:23:40;13.90;;;3.83;;
52708;SDS011;38606;52.986;6.980;2023-08-24T14:26:06;9.23;;;4.25;;
52708;SDS011;38606;52.986;6.980;2023-08-24T14:31:20;8.15;;;3.80;;
52708;SDS011;38606;52.986;6.980;2023-08-24T14:33:46;6.75;;;3.55;;
52708;SDS011;38606;52.986;6.980;2023-08-24T14:36:13;6.68;;;4.30;;
52708;SDS011;38606;52.986;6.980;2023-08-24T14:38:39;8.75;;;4.20;;
52708;SDS011;38606;52.986;6.980;2023-08-24T14:41:05;8.32;;;4.85;;
52708;SDS011;38606;52.986;6.980;2023-08-24T14:43:32;6.25;;;4.45;;
52708;SDS011;38606;52.986;6.980;2023-08-24T14:45:58;9.30;;;4.45;;
52708;SDS011;38606;52.986;6.980;2023-08-24T14:48:23;8.30;;;4.32;;
52708;SDS011;38606;52.986;6.980;2023-08-24T14:50:49;5.18;;;3.78;;
52708;SDS011;38606;52.986;6.980;2023-08-24T14:53:15;8.05;;;4.13;;
52708;SDS011;38606;52.986;6.980;2023-08-24T14:55:41;6.10;;;4.50;;
52708;SDS011;38606;52.986;6.980;2023-08-24T14:58:06;10.93;;;4.97;;
52708;SDS011;38606;52.986;6.980;2023-08-24T15:00:33;9.20;;;4.10;;
52708;SDS011;38606;52.986;6.980;2023-08-24T15:02:59;6.93;;;4.40;;
52708;SDS011;38606;52.986;6.980;2023-08-24T15:05:25;6.07;;;4.13;;
52708;SDS011;38606;52.986;6.980;2023-08-24T15:07:50;5.15;;;4.05;;
52708;SDS011;38606;52.986;6.980;2023-08-24T15:10:16;5.70;;;4.00;;
52708;SDS011;38606;52.986;6.980;2023-08-24T15:12:43;7.05;;;4.63;;
52708;SDS011;38606;52.986;6.980;2023-08-24T15:15:10;7.93;;;4.97;;
52708;SDS011;38606;52.986;6.980;2023-08-24T15:17:36;11.18;;;4.72;;
52708;SDS011;38606;52.986;6.980;2023-08-24T15:20:02;8.52;;;5.10;;
52708;SDS011;38606;52.986;6.980;2023-08-24T15:22:31;8.98;;;4.90;;
52708;SDS011;38606;52.986;6.980;2023-08-24T15:24:58;5.68;;;5.07;;
52708;SDS011;38606;52.986;6.980;2023-08-24T15:27:24;9.98;;;5.35;;
52708;SDS011;38606;52.986;6.980;2023-08-24T15:29:50;7.70;;;4.93;;